createdAt,value
2023-03-17T00:02:30.338Z,1.33
2023-03-17T00:04:58.344Z,1.17
2023-03-17T00:07:25.407Z,1.88
2023-03-17T00:09:52.843Z,1.92
2023-03-17T00:12:20.133Z,1.60
2023-03-17T00:14:50.980Z,1.27
2023-03-17T00:17:18.721Z,1.20
2023-03-17T00:19:49.693Z,1.25
2023-03-17T00:22:23.007Z,1.40
2023-03-17T00:24:52.434Z,1.13
2023-03-17T00:29:50.208Z,1.10
2023-03-17T00:32:20.332Z,1.70
2023-03-17T00:34:47.855Z,1.70
2023-03-17T00:37:15.144Z,1.05
2023-03-17T00:39:43.115Z,1.38
2023-03-17T00:42:11.171Z,1.20
2023-03-17T00:44:38.530Z,1.45
2023-03-17T00:47:07.562Z,1.23
2023-03-17T00:49:35.481Z,1.42
2023-03-17T00:52:02.429Z,1.20
2023-03-17T00:54:30.116Z,1.63
2023-03-17T00:56:57.735Z,1.50
2023-03-17T00:59:31.042Z,1.77
2023-03-17T01:01:58.377Z,1.73
2023-03-17T01:04:26.015Z,1.55
2023-03-17T01:06:54.610Z,1.95
2023-03-17T01:09:26.867Z,1.67
2023-03-17T01:11:55.848Z,1.17
2023-03-17T01:16:55.495Z,4.32
2023-03-17T01:19:23.155Z,1.75
2023-03-17T01:21:50.341Z,1.77
2023-03-17T01:24:19.260Z,1.63
2023-03-17T01:26:46.256Z,3.00
2023-03-17T01:29:14.388Z,2.15
2023-03-17T01:31:41.498Z,2.03
2023-03-17T01:34:08.994Z,1.85
2023-03-17T01:36:35.974Z,1.48
2023-03-17T01:39:05.406Z,2.22
2023-03-17T01:41:37.681Z,1.88
2023-03-17T01:44:05.227Z,1.50
2023-03-17T01:46:34.412Z,1.83
2023-03-17T01:49:26.001Z,2.40
2023-03-17T01:52:10.500Z,1.60
2023-03-17T01:54:40.890Z,1.80
2023-03-17T01:57:19.640Z,1.83
2023-03-17T01:59:51.621Z,1.85
2023-03-17T02:02:32.888Z,2.15
2023-03-17T02:05:00.707Z,2.33
2023-03-17T02:07:28.390Z,2.05
2023-03-17T02:09:57.270Z,1.40
2023-03-17T02:12:25.692Z,2.15
2023-03-17T02:14:52.984Z,2.00
2023-03-17T02:17:24.877Z,1.90
2023-03-17T02:19:52.601Z,2.58
2023-03-17T02:22:20.395Z,3.28
2023-03-17T02:24:55.887Z,2.00
2023-03-17T02:27:33.562Z,2.70
2023-03-17T02:30:01.488Z,1.73
2023-03-17T02:32:28.575Z,2.63
2023-03-17T02:34:57.378Z,1.75
2023-03-17T02:37:24.381Z,1.98
2023-03-17T02:39:53.969Z,2.38
2023-03-17T02:42:21.089Z,1.50
2023-03-17T02:44:48.651Z,2.75
2023-03-17T02:47:15.786Z,1.40
2023-03-17T02:49:44.215Z,1.55
2023-03-17T02:52:12.196Z,1.45
2023-03-17T02:54:39.722Z,1.60
2023-03-17T02:57:08.690Z,1.90
2023-03-17T02:59:36.448Z,1.55
2023-03-17T03:02:03.654Z,1.63
2023-03-17T03:04:31.025Z,2.30
2023-03-17T03:06:58.062Z,1.67
2023-03-17T03:09:27.436Z,1.90
2023-03-17T03:11:54.463Z,1.30
2023-03-17T03:14:23.765Z,1.40
2023-03-17T03:16:51.202Z,0.95
2023-03-17T03:19:18.639Z,1.52
2023-03-17T03:21:46.320Z,1.60
2023-03-17T03:24:13.885Z,1.48
2023-03-17T03:26:41.622Z,1.08
2023-03-17T03:29:09.150Z,1.33
2023-03-17T03:31:36.251Z,1.45
2023-03-17T03:34:04.213Z,1.15
2023-03-17T03:36:31.402Z,1.65
2023-03-17T03:39:00.099Z,1.08
2023-03-17T03:41:27.550Z,0.77
2023-03-17T03:43:57.026Z,1.42
2023-03-17T03:46:24.130Z,1.52
2023-03-17T03:48:51.498Z,1.40
2023-03-17T03:51:18.656Z,1.67
2023-03-17T03:53:47.176Z,1.13
2023-03-17T03:56:17.461Z,1.20
2023-03-17T03:58:44.915Z,1.45
2023-03-17T04:01:12.524Z,1.30
2023-03-17T04:03:40.037Z,2.03
2023-03-17T04:06:07.317Z,1.80
2023-03-17T04:08:35.102Z,1.40
2023-03-17T04:11:02.113Z,1.20
2023-03-17T04:13:29.442Z,1.00
2023-03-17T04:15:56.638Z,1.20
2023-03-17T04:18:24.018Z,1.20
2023-03-17T04:20:51.054Z,1.20
2023-03-17T04:23:19.263Z,1.27
2023-03-17T04:25:47.230Z,1.60
2023-03-17T04:28:15.416Z,1.80
2023-03-17T04:30:42.462Z,1.00
2023-03-17T04:33:10.999Z,1.95
2023-03-17T04:35:38.186Z,1.30
2023-03-17T04:38:07.075Z,1.73
2023-03-17T04:40:34.165Z,1.52
2023-03-17T04:43:03.486Z,1.20
2023-03-17T04:45:30.642Z,1.42
2023-03-17T04:47:58.078Z,1.00
2023-03-17T04:50:25.314Z,1.20
2023-03-17T04:52:52.598Z,1.02
2023-03-17T04:55:21.973Z,1.35
2023-03-17T04:57:49.815Z,1.50
2023-03-17T05:00:18.220Z,1.40
2023-03-17T05:05:13.794Z,2.65
2023-03-17T05:07:41.994Z,1.60
2023-03-17T05:10:10.120Z,1.52
2023-03-17T05:12:37.791Z,1.35
2023-03-17T05:15:05.831Z,1.42
2023-03-17T05:17:35.802Z,1.00
2023-03-17T05:20:02.977Z,1.48
2023-03-17T05:22:30.734Z,1.27
2023-03-17T05:24:57.886Z,1.50
2023-03-17T05:27:30.545Z,1.30
2023-03-17T05:29:57.843Z,1.55
2023-03-17T05:32:25.887Z,1.75
2023-03-17T05:34:53.846Z,1.50
2023-03-17T05:37:23.848Z,1.50
2023-03-17T05:39:51.110Z,1.58
2023-03-17T05:42:18.780Z,1.45
2023-03-17T05:44:47.838Z,1.35
2023-03-17T05:47:19.229Z,1.13
2023-03-17T05:49:46.974Z,1.00
2023-03-17T05:52:14.509Z,1.45
2023-03-17T05:54:41.546Z,1.17
2023-03-17T05:57:08.932Z,2.10
2023-03-17T05:59:36.305Z,1.65
2023-03-17T06:02:04.298Z,2.10
2023-03-17T06:04:31.397Z,2.13
2023-03-17T06:06:58.858Z,1.58
2023-03-17T06:09:26.119Z,1.70
2023-03-17T06:11:53.750Z,2.25
2023-03-17T06:14:21.243Z,1.70
2023-03-17T06:16:55.977Z,1.85
2023-03-17T06:19:24.710Z,1.65
2023-03-17T06:21:52.628Z,1.75
2023-03-17T06:24:21.725Z,1.70
2023-03-17T06:26:49.204Z,1.63
2023-03-17T06:29:16.322Z,1.63
2023-03-17T06:31:50.468Z,1.50
2023-03-17T06:34:18.824Z,1.10
2023-03-17T06:36:46.425Z,2.35
2023-03-17T06:41:56.904Z,2.28
2023-03-17T06:44:25.849Z,2.30
2023-03-17T06:46:53.439Z,1.52
2023-03-17T06:49:20.749Z,1.60
2023-03-17T06:51:48.206Z,1.75
2023-03-17T06:54:15.375Z,1.77
2023-03-17T06:56:42.988Z,1.35
2023-03-17T06:59:10.569Z,1.75
2023-03-17T07:01:39.445Z,1.58
2023-03-17T07:04:09.794Z,1.80
2023-03-17T07:06:46.369Z,1.73
2023-03-17T07:09:15.687Z,1.42
2023-03-17T07:12:18.792Z,1.42
2023-03-17T07:14:48.257Z,1.35
2023-03-17T07:17:15.884Z,1.45
2023-03-17T07:19:43.793Z,1.17
2023-03-17T07:22:14.158Z,1.60
2023-03-17T07:24:47.080Z,1.35
2023-03-17T07:27:14.863Z,1.80
2023-03-17T07:29:42.167Z,1.38
2023-03-17T07:32:10.453Z,1.38
2023-03-17T07:34:37.913Z,1.58
2023-03-17T07:37:07.103Z,0.95
2023-03-17T07:39:34.471Z,1.23
2023-03-17T07:42:02.109Z,0.85
2023-03-17T07:44:31.365Z,1.42
2023-03-17T07:46:58.829Z,1.58
2023-03-17T07:49:40.375Z,1.38
2023-03-17T07:52:10.233Z,1.27
2023-03-17T07:54:37.838Z,2.15
2023-03-17T07:57:06.508Z,1.90
2023-03-17T07:59:33.911Z,1.75
2023-03-17T08:02:02.033Z,1.33
2023-03-17T08:04:29.387Z,2.38
2023-03-17T08:06:57.843Z,2.25
2023-03-17T08:09:34.581Z,1.83
2023-03-17T08:12:02.213Z,2.00
2023-03-17T08:14:30.296Z,1.02
2023-03-17T08:16:57.759Z,2.03
2023-03-17T08:19:24.813Z,1.90
2023-03-17T08:21:53.265Z,1.10
2023-03-17T08:24:20.900Z,1.95
2023-03-17T08:26:49.511Z,1.38
2023-03-17T08:29:21.299Z,1.25
2023-03-17T08:31:49.886Z,1.80
2023-03-17T08:34:17.770Z,1.58
2023-03-17T08:36:46.858Z,1.52
2023-03-17T08:39:17.374Z,1.73
2023-03-17T08:41:44.973Z,1.73
2023-03-17T08:44:13.105Z,1.58
2023-03-17T08:46:40.950Z,1.85
2023-03-17T08:49:08.310Z,1.50
2023-03-17T08:51:38.025Z,1.40
2023-03-17T08:54:06.972Z,1.60
2023-03-17T08:56:37.696Z,1.50
2023-03-17T08:59:07.240Z,1.90
2023-03-17T09:01:35.273Z,1.50
2023-03-17T09:04:02.974Z,1.10
2023-03-17T09:06:32.384Z,1.25
2023-03-17T09:09:00.444Z,1.35
2023-03-17T09:11:30.054Z,1.55
2023-03-17T09:13:58.136Z,1.50
2023-03-17T09:16:25.972Z,1.35
2023-03-17T09:18:53.611Z,1.50
2023-03-17T09:21:21.599Z,1.10
2023-03-17T09:23:50.179Z,1.38
2023-03-17T09:26:17.871Z,1.38
2023-03-17T09:28:46.834Z,1.20
2023-03-17T09:31:14.380Z,1.73
2023-03-17T09:33:42.226Z,1.33
2023-03-17T09:36:17.419Z,1.00
2023-03-17T09:39:00.476Z,1.10
2023-03-17T09:41:52.122Z,1.60
2023-03-17T09:44:43.814Z,1.30
2023-03-17T09:47:37.524Z,0.90
2023-03-17T09:50:10.797Z,1.20
2023-03-17T09:52:38.621Z,1.40
2023-03-17T09:55:18.745Z,1.33
2023-03-17T09:57:46.517Z,1.20
2023-03-17T10:00:19.137Z,0.75
2023-03-17T10:02:53.130Z,1.20
2023-03-17T10:05:30.291Z,2.08
2023-03-17T10:08:29.375Z,0.90
2023-03-17T10:11:10.974Z,0.85
2023-03-17T10:13:55.189Z,0.77
2023-03-17T10:16:32.889Z,1.08
2023-03-17T10:19:27.277Z,0.90
2023-03-17T10:22:03.259Z,1.05
2023-03-17T10:24:34.048Z,1.17
2023-03-17T10:27:06.508Z,1.05
2023-03-17T10:29:34.167Z,0.90
2023-03-17T10:32:01.242Z,1.63
2023-03-17T10:34:37.724Z,0.73
2023-03-17T10:37:13.529Z,0.82
2023-03-17T10:39:53.542Z,0.75
2023-03-17T10:42:35.758Z,0.95
2023-03-17T10:45:26.121Z,0.85
2023-03-17T10:47:56.606Z,0.73
2023-03-17T10:50:48.648Z,1.02
2023-03-17T10:53:28.132Z,0.82
2023-03-17T10:56:07.142Z,0.85
2023-03-17T10:58:49.772Z,0.60
2023-03-17T11:01:29.373Z,0.80
2023-03-17T11:03:57.709Z,0.68
2023-03-17T11:06:37.593Z,0.70
2023-03-17T11:09:18.575Z,0.90
2023-03-17T11:11:48.355Z,0.70
2023-03-17T11:14:21.188Z,0.88
2023-03-17T11:16:53.276Z,0.65
2023-03-17T11:19:27.802Z,0.60
2023-03-17T11:22:16.131Z,0.63
2023-03-17T11:24:55.542Z,0.85
2023-03-17T11:27:31.635Z,0.85
2023-03-17T11:30:30.591Z,0.90
2023-03-17T11:33:01.147Z,0.70
2023-03-17T11:35:44.227Z,0.95
2023-03-17T11:38:31.056Z,0.50
2023-03-17T11:41:28.443Z,1.30
2023-03-17T11:44:21.673Z,0.50
2023-03-17T11:47:04.994Z,0.52
2023-03-17T11:49:45.758Z,0.73
2023-03-17T11:52:32.747Z,0.50
2023-03-17T11:55:20.084Z,0.60
2023-03-17T11:57:51.898Z,0.47
2023-03-17T12:00:34.738Z,0.90
2023-03-17T12:03:17.846Z,0.73
2023-03-17T12:05:51.649Z,0.47
2023-03-17T12:08:49.984Z,0.52
2023-03-17T12:11:24.176Z,0.90
2023-03-17T12:14:01.402Z,0.43
2023-03-17T12:16:49.556Z,0.55
2023-03-17T12:19:28.428Z,0.50
2023-03-17T12:22:32.932Z,0.40
2023-03-17T12:25:18.210Z,1.42
2023-03-17T12:28:00.337Z,0.43
2023-03-17T12:30:45.770Z,0.52
2023-03-17T12:33:34.531Z,0.90
2023-03-17T12:36:04.317Z,0.80
2023-03-17T12:38:38.556Z,0.70
2023-03-17T12:41:20.978Z,0.70
2023-03-17T12:44:13.011Z,0.70
2023-03-17T12:46:42.955Z,1.05
2023-03-17T12:49:28.116Z,1.30
2023-03-17T12:52:18.197Z,0.98
2023-03-17T12:54:52.384Z,0.68
2023-03-17T12:57:22.912Z,0.98
2023-03-17T13:00:15.562Z,0.55
2023-03-17T13:02:49.694Z,0.80
2023-03-17T13:05:28.560Z,1.25
2023-03-17T13:07:59.670Z,1.15
2023-03-17T13:10:48.212Z,0.75
2023-03-17T13:14:01.261Z,0.70
2023-03-17T13:16:34.396Z,0.80
2023-03-17T13:19:33.030Z,1.02
2023-03-17T13:22:00.759Z,0.82
2023-03-17T13:24:51.213Z,1.10
2023-03-17T13:27:24.372Z,0.65
2023-03-17T13:29:51.518Z,0.63
2023-03-17T13:32:26.587Z,0.73
2023-03-17T13:35:15.976Z,0.60
2023-03-17T13:38:07.161Z,1.17
2023-03-17T13:40:52.990Z,0.70
2023-03-17T13:47:23.463Z,0.65
2023-03-17T13:49:55.586Z,0.57
2023-03-17T13:52:28.115Z,0.70
2023-03-17T13:55:03.318Z,0.80
2023-03-17T13:57:39.329Z,0.88
2023-03-17T14:00:28.158Z,1.17
2023-03-17T14:05:38.271Z,0.65
2023-03-17T14:08:22.850Z,0.88
2023-03-17T14:10:57.012Z,1.00
2023-03-17T14:13:44.828Z,0.95
2023-03-17T14:16:26.696Z,0.70
2023-03-17T14:19:27.208Z,0.82
2023-03-17T14:22:01.795Z,0.88
2023-03-17T14:24:31.847Z,1.00
2023-03-17T14:27:07.333Z,0.88
2023-03-17T14:29:35.246Z,0.82
2023-03-17T14:32:12.121Z,1.17
2023-03-17T14:34:43.902Z,0.85
2023-03-17T14:37:15.103Z,1.20
2023-03-17T14:39:52.488Z,1.15
2023-03-17T14:42:26.799Z,0.65
2023-03-17T14:45:08.840Z,0.80
2023-03-17T14:47:56.303Z,0.50
2023-03-17T14:50:30.251Z,1.33
2023-03-17T14:53:01.544Z,0.75
2023-03-17T14:55:43.442Z,1.30
2023-03-17T14:58:24.808Z,0.95
2023-03-17T15:01:08.093Z,1.00
2023-03-17T15:03:40.008Z,1.02
2023-03-17T15:06:26.150Z,0.70
2023-03-17T15:08:54.690Z,1.30
2023-03-17T15:11:41.833Z,1.25
2023-03-17T15:14:38.928Z,1.45
2023-03-17T15:17:17.241Z,0.90
2023-03-17T15:19:50.760Z,1.33
2023-03-17T15:22:22.913Z,0.82
2023-03-17T15:25:22.580Z,1.23
2023-03-17T15:27:51.584Z,1.30
2023-03-17T15:30:19.430Z,1.52
2023-03-17T15:32:53.063Z,1.25
2023-03-17T15:35:21.473Z,1.30
2023-03-17T15:37:48.833Z,1.50
2023-03-17T15:43:07.375Z,1.42
2023-03-17T15:45:47.560Z,1.40
2023-03-17T15:48:26.525Z,1.60
2023-03-17T15:50:56.985Z,1.20
2023-03-17T15:53:39.733Z,1.30
2023-03-17T15:56:14.432Z,1.15
2023-03-17T15:58:41.595Z,1.02
2023-03-17T16:01:11.839Z,0.93
2023-03-17T16:03:45.735Z,1.75
2023-03-17T16:06:20.893Z,2.05
2023-03-17T16:08:49.947Z,2.08
2023-03-17T16:14:03.560Z,0.50
2023-03-17T16:16:39.859Z,1.58
2023-03-17T16:19:15.121Z,0.70
2023-03-17T16:24:31.832Z,1.42
2023-03-17T16:26:59.637Z,0.98
2023-03-17T16:29:26.725Z,0.52
2023-03-17T16:31:54.137Z,1.50
2023-03-17T16:34:23.395Z,1.58
2023-03-17T16:36:54.415Z,1.40
2023-03-17T16:39:23.540Z,2.10
2023-03-17T16:42:04.942Z,1.70
2023-03-17T16:47:26.794Z,1.42
2023-03-17T16:49:53.775Z,1.30
2023-03-17T16:52:21.110Z,3.10
2023-03-17T16:54:48.557Z,2.20
2023-03-17T16:57:16.334Z,5.38
2023-03-17T16:59:43.419Z,2.45
2023-03-17T17:02:16.399Z,2.08
2023-03-17T17:04:44.013Z,1.00
2023-03-17T17:07:11.681Z,1.55
2023-03-17T17:09:39.136Z,2.03
2023-03-17T17:12:07.181Z,1.70
2023-03-17T17:14:34.380Z,1.50
2023-03-17T17:17:14.853Z,2.03
2023-03-17T17:19:44.844Z,1.30
2023-03-17T17:22:14.745Z,2.22
2023-03-17T17:24:41.771Z,1.90
2023-03-17T17:27:09.149Z,1.88
2023-03-17T17:32:22.153Z,2.20
2023-03-17T17:34:49.662Z,2.17
2023-03-17T17:37:17.341Z,2.03
2023-03-17T17:39:45.013Z,2.45
2023-03-17T17:42:16.319Z,1.80
2023-03-17T17:44:43.647Z,1.42
2023-03-17T17:47:14.095Z,2.08
2023-03-17T17:49:41.820Z,2.30
2023-03-17T17:52:10.680Z,1.70
2023-03-17T17:54:39.121Z,1.65
2023-03-17T17:57:07.185Z,2.20
2023-03-17T17:59:34.591Z,2.97
2023-03-17T18:02:03.478Z,2.38
2023-03-17T18:04:30.923Z,2.95
2023-03-17T18:09:44.169Z,2.70
2023-03-17T18:12:12.944Z,3.22
2023-03-17T18:14:39.940Z,2.22
2023-03-17T18:17:09.463Z,2.97
2023-03-17T18:19:37.602Z,2.88
2023-03-17T18:22:05.186Z,2.58
2023-03-17T18:24:32.300Z,2.25
2023-03-17T18:27:00.760Z,3.85
2023-03-17T18:29:27.917Z,3.30
2023-03-17T18:31:55.762Z,3.42
2023-03-17T18:34:44.364Z,2.95
2023-03-17T18:37:15.441Z,3.50
2023-03-17T18:39:43.498Z,4.03
2023-03-17T18:42:14.463Z,2.35
2023-03-17T18:44:41.598Z,4.03
2023-03-17T18:47:10.899Z,2.67
2023-03-17T18:49:38.444Z,2.63
2023-03-17T18:52:05.765Z,1.98
2023-03-17T18:54:33.266Z,1.75
2023-03-17T18:57:02.008Z,3.35
2023-03-17T18:59:29.022Z,3.03
2023-03-17T19:01:57.356Z,3.25
2023-03-17T19:04:24.460Z,3.50
2023-03-17T19:06:52.348Z,3.08
2023-03-17T19:09:19.677Z,2.72
2023-03-17T19:11:47.178Z,2.53
2023-03-17T19:14:14.409Z,2.05
2023-03-17T19:16:41.888Z,1.60
2023-03-17T19:19:09.176Z,3.13
2023-03-17T19:21:36.633Z,2.58
2023-03-17T19:24:05.035Z,1.73
2023-03-17T19:26:33.819Z,3.35
2023-03-17T19:29:01.607Z,3.13
2023-03-17T19:31:29.133Z,2.50
2023-03-17T19:33:56.700Z,1.75
2023-03-17T19:36:24.257Z,4.18
2023-03-17T19:38:51.344Z,1.80
2023-03-17T19:41:19.109Z,2.83
2023-03-17T19:43:46.331Z,2.10
2023-03-17T19:46:13.921Z,2.95
2023-03-17T19:48:42.059Z,2.10
2023-03-17T19:51:09.980Z,2.20
2023-03-17T19:53:37.632Z,3.00
2023-03-17T19:56:05.266Z,2.22
2023-03-17T19:58:32.746Z,2.58
2023-03-17T20:01:00.568Z,2.15
2023-03-17T20:03:28.561Z,2.47
2023-03-17T20:08:37.906Z,2.33
2023-03-17T20:11:06.378Z,1.52
2023-03-17T20:13:35.078Z,2.10
2023-03-17T20:16:03.784Z,2.33
2023-03-17T20:18:31.515Z,1.52
2023-03-17T20:21:07.534Z,2.45
2023-03-17T20:26:05.173Z,1.17
2023-03-17T20:28:32.690Z,1.88
2023-03-17T20:31:03.106Z,2.13
2023-03-17T20:33:32.655Z,1.50
2023-03-17T20:36:03.305Z,1.60
2023-03-17T20:38:33.384Z,2.60
2023-03-17T20:41:14.202Z,2.00
2023-03-17T20:43:41.978Z,2.28
2023-03-17T20:46:15.727Z,1.30
2023-03-17T20:48:44.334Z,2.33
2023-03-17T20:51:16.497Z,1.52
2023-03-17T20:53:46.365Z,1.02
2023-03-17T20:56:16.511Z,2.47
2023-03-17T20:58:49.534Z,1.30
2023-03-17T21:01:21.538Z,2.83
2023-03-17T21:03:50.895Z,1.85
2023-03-17T21:06:18.739Z,2.08
2023-03-17T21:08:46.353Z,3.38
2023-03-17T21:11:17.789Z,3.20
2023-03-17T21:13:45.430Z,1.45
2023-03-17T21:16:25.867Z,3.20
2023-03-17T21:18:53.173Z,2.30
2023-03-17T21:21:21.851Z,2.38
2023-03-17T21:23:49.405Z,3.17
2023-03-17T21:26:17.880Z,2.85
2023-03-17T21:28:45.475Z,2.38
2023-03-17T21:31:14.002Z,2.55
2023-03-17T21:33:42.232Z,2.80
2023-03-17T21:36:09.893Z,2.58
2023-03-17T21:38:37.740Z,2.97
2023-03-17T21:41:34.026Z,2.78
2023-03-17T21:44:02.301Z,2.83
2023-03-17T21:46:31.767Z,2.47
2023-03-17T21:51:27.948Z,2.47
2023-03-17T21:53:55.117Z,2.28
2023-03-17T21:56:22.442Z,3.15
2023-03-17T21:58:50.265Z,2.10
2023-03-17T22:01:20.545Z,1.80
2023-03-17T22:03:49.620Z,3.10
2023-03-17T22:06:17.737Z,2.80
2023-03-17T22:08:45.852Z,3.33
2023-03-17T22:11:18.866Z,3.20
2023-03-17T22:13:46.812Z,3.38
2023-03-17T22:16:15.719Z,5.18
2023-03-17T22:18:43.177Z,5.47
2023-03-17T22:21:11.028Z,4.30
2023-03-17T22:23:42.465Z,3.67
2023-03-17T22:26:15.517Z,4.25
2023-03-17T22:28:43.853Z,5.97
2023-03-17T22:31:17.597Z,5.70
2023-03-17T22:33:46.853Z,6.30
2023-03-17T22:36:14.607Z,5.20
2023-03-17T22:38:42.163Z,6.47
2023-03-17T22:41:13.510Z,4.78
2023-03-17T22:43:41.798Z,3.95
2023-03-17T22:46:11.310Z,5.38
2023-03-17T22:48:39.977Z,4.10
2023-03-17T22:51:15.857Z,5.35
2023-03-17T22:53:44.724Z,4.32
2023-03-17T22:56:13.168Z,5.72
2023-03-17T22:58:40.600Z,3.08
2023-03-17T23:01:10.293Z,4.53
2023-03-17T23:03:37.388Z,3.40
2023-03-17T23:06:06.185Z,3.63
2023-03-17T23:08:36.181Z,5.05
2023-03-17T23:11:07.978Z,4.85
2023-03-17T23:13:35.937Z,6.70
2023-03-17T23:16:04.885Z,4.45
2023-03-17T23:18:32.751Z,5.18
2023-03-17T23:21:01.670Z,7.47
2023-03-17T23:23:30.396Z,6.57
2023-03-17T23:25:58.268Z,5.45
2023-03-17T23:28:25.393Z,4.93
2023-03-17T23:30:53.422Z,5.55
2023-03-17T23:33:23.118Z,4.97
2023-03-17T23:35:52.984Z,7.25
2023-03-17T23:38:21.661Z,5.43
2023-03-17T23:40:50.247Z,7.70
2023-03-17T23:43:17.547Z,6.57
2023-03-17T23:45:45.588Z,7.38
2023-03-17T23:48:12.949Z,6.30
2023-03-17T23:50:41.394Z,6.00
2023-03-17T23:53:09.972Z,6.75
2023-03-17T23:55:38.748Z,6.38
2023-03-17T23:58:05.791Z,5.18
